aviador You're here:

WBKT Decoded Metar

KUDAT in MALAYSIA
Report Time2017-05-30 10:00:00
UTC Time2017-05-30 11:08:46
Flight Rules Old
Wind230° at 03 kt
W.Rank230° ranks 5
Current wind is below 230° avg. (3.4)
Visibility9999 m
Phenomena:N/A
Clouds:Scattered 014 Hf
Scattered 034 Hf
Broken 270 Hf
Expected CloudBase > 400 ft AGL from Temp-Dew spread
Ceiling27,000 ft
Temp26°C (ISA +11)
Dew Point25°C (94% RH)
QNH1009 hPa
Density Alt1,841 ft
Elevation16 ft
Report Wrong Elevation
Raw Report
WBKT 301000Z 23003KT 9999 SCT014 SCT034 BKN270 26/25 Q1009=

Extra information for WBKT:More info

Metar Taf Metar & Taf Last 4 Metars F.Rules Stats Wind Profile Meteogram Temp Stats Airport Information Weather charts Add Link Nearby VenuesMetar ALERT Operation Metar Decoded Social comments